Time;durP1;ratioP1;P1;durP2;ratioP2;P2;SDS_P1;SDS_P2;PMS_P1;PMS_P2;Temp;Humidity;BMP_temperature;BMP_pressure;BME280_temperature;BME280_humidity;BME280_pressure;Samples;Min_cycle;Max_cycle;Signal;HPM_P1;HPM_P2
2021/01/02 00:02:25;;;;;;;8.73;6.53;;;;;;;4.81;76.97;95184.34;4901605;29;20443;-83
2021/01/02 00:05:08;;;;;;;11.10;7.63;;;;;;;4.74;75.98;95193.41;4933364;29;20454;-82
2021/01/02 00:08:06;;;;;;;13.07;9.00;;;;;;;4.74;76.30;95200.38;4901461;29;20509;-82
2021/01/02 00:10:42;;;;;;;16.90;8.80;;;;;;;4.80;76.48;95198.25;4951743;28;20435;-83
2021/01/02 00:13:25;;;;;;;15.77;8.87;;;;;;;4.86;76.35;95203.09;5013133;28;20450;-82
2021/01/02 00:16:23;;;;;;;18.73;7.90;;;;;;;4.94;75.74;95205.28;5012917;28;20818;-81
2021/01/02 00:19:02;;;;;;;9.50;6.63;;;;;;;4.91;75.62;95200.22;4933332;29;20554;-81
2021/01/02 00:21:29;;;;;;;10.63;6.97;;;;;;;4.95;75.72;95213.00;4933431;29;21019;-82
2021/01/02 00:24:30;;;;;;;11.43;7.13;;;;;;;4.95;75.91;95217.34;4933287;29;20935;-82
2021/01/02 00:27:04;;;;;;;10.13;6.93;;;;;;;4.95;75.48;95220.78;4933576;29;20494;-83
2021/01/02 00:29:57;;;;;;;9.03;6.73;;;;;;;5.01;75.16;95227.41;4933477;29;20458;-82
2021/01/02 00:32:38;;;;;;;9.70;6.67;;;;;;;5.03;74.08;95224.69;4933881;29;20566;-83
2021/01/02 00:35:06;;;;;;;10.43;6.37;;;;;;;5.07;74.97;95221.84;4933496;29;20481;-82
2021/01/02 00:37:38;;;;;;;13.97;7.30;;;;;;;5.10;74.27;95228.63;4933484;29;20439;-81
2021/01/02 00:40:09;;;;;;;10.47;7.80;;;;;;;4.92;73.89;95225.34;4887007;29;20447;-83
2021/01/02 00:42:38;;;;;;;15.93;8.40;;;;;;;4.89;73.58;95228.06;4933087;29;20450;-82
2021/01/02 00:45:07;;;;;;;12.60;8.87;;;;;;;4.81;74.46;95225.94;4933301;29;20478;-82
2021/01/02 00:47:35;;;;;;;13.63;9.30;;;;;;;4.81;74.53;95232.88;4932894;29;20917;-82
2021/01/02 00:50:02;;;;;;;17.30;11.07;;;;;;;4.75;73.54;95225.44;4933291;29;20809;-83
2021/01/02 00:52:57;;;;;;;14.10;9.40;;;;;;;4.72;74.87;95216.06;4933064;29;20443;-81
2021/01/02 00:55:32;;;;;;;13.53;9.93;;;;;;;4.69;73.93;95218.00;4951437;28;21001;-83
2021/01/02 00:58:05;;;;;;;12.70;9.70;;;;;;;4.67;74.67;95220.69;5012809;28;20454;-82
2021/01/02 01:00:35;;;;;;;13.30;9.60;;;;;;;4.67;74.14;95220.69;5012426;28;20949;-81
2021/01/02 01:03:06;;;;;;;12.43;9.07;;;;;;;4.69;75.02;95216.22;5016485;28;20485;-81
2021/01/02 01:05:37;;;;;;;13.43;10.33;;;;;;;4.66;73.94;95213.81;5016380;28;20454;-82
2021/01/02 01:08:05;;;;;;;15.63;8.53;;;;;;;4.65;74.15;95206.94;5016583;28;20489;-82
2021/01/02 01:10:33;;;;;;;18.47;8.37;;;;;;;4.60;75.16;95207.19;5016851;28;20840;-81
2021/01/02 01:13:06;;;;;;;15.67;8.10;;;;;;;4.66;74.99;95214.66;5016888;28;20501;-82
2021/01/02 01:15:33;;;;;;;12.87;8.90;;;;;;;4.70;74.44;95219.66;5016641;28;21129;-82
2021/01/02 01:18:46;;;;;;;14.63;8.40;;;;;;;4.66;75.11;95229.41;4981956;28;20966;-83
2021/01/02 01:21:16;;;;;;;9.60;6.70;;;;;;;4.60;75.26;95227.97;5016318;28;20481;-83
2021/01/02 01:24:02;;;;;;;17.60;10.80;;;;;;;4.50;75.05;95226.81;5016201;28;20522;-82
2021/01/02 01:27:02;;;;;;;17.53;11.90;;;;;;;4.51;75.43;95223.28;4983378;28;20443;-81
2021/01/02 01:29:41;;;;;;;17.27;10.27;;;;;;;4.49;75.02;95230.34;5015739;28;20534;-82
2021/01/02 01:32:08;;;;;;;20.70;11.43;;;;;;;4.50;74.28;95228.56;5015827;28;20530;-83
2021/01/02 01:34:35;;;;;;;17.10;11.57;;;;;;;4.43;74.63;95229.84;5015756;28;20446;-82
2021/01/02 01:37:04;;;;;;;18.80;10.27;;;;;;;4.47;74.53;95228.75;5016004;28;20526;-81
2021/01/02 01:39:32;;;;;;;14.90;10.87;;;;;;;4.43;74.99;95240.25;5016026;28;20454;-82
2021/01/02 01:42:01;;;;;;;14.00;11.13;;;;;;;4.43;74.72;95237.63;4980986;28;20451;-82
2021/01/02 01:44:45;;;;;;;18.67;10.10;;;;;;;4.39;74.79;95241.34;5015632;28;20617;-83
2021/01/02 01:47:14;;;;;;;18.33;12.00;;;;;;;4.34;74.03;95236.41;5015410;28;20474;-82
2021/01/02 01:50:15;;;;;;;24.57;13.53;;;;;;;4.25;74.16;95234.28;5015236;28;20458;-82
2021/01/02 01:53:18;;;;;;;22.60;13.80;;;;;;;4.18;75.31;95228.59;5015640;28;20806;-82
2021/01/02 01:55:58;;;;;;;25.60;16.77;;;;;;;4.08;75.71;95240.41;5015252;28;20451;-82
2021/01/02 01:59:08;;;;;;;25.53;15.87;;;;;;;4.08;76.49;95244.75;5015461;28;20534;-80
2021/01/02 02:01:39;;;;;;;22.60;15.33;;;;;;;4.04;76.11;95239.69;5015450;28;20530;-81
2021/01/02 02:04:32;;;;;;;24.87;14.93;;;;;;;4.06;75.99;95237.06;5015303;28;20443;-80
2021/01/02 02:07:00;;;;;;;19.07;12.00;;;;;;;4.05;75.73;95245.75;4954332;29;21021;-83
2021/01/02 02:09:40;;;;;;;17.10;10.27;;;;;;;4.06;76.76;95242.25;4954727;29;20450;-80
2021/01/02 02:12:16;;;;;;;14.77;8.10;;;;;;;4.06;76.88;95239.66;4954246;28;20477;-80
2021/01/02 02:14:48;;;;;;;10.17;7.50;;;;;;;4.06;76.99;95242.25;4954040;29;20524;-81
2021/01/02 02:17:18;;;;;;;11.80;7.20;;;;;;;4.08;76.31;95236.97;4954324;29;20446;-81
2021/01/02 02:19:55;;;;;;;9.30;6.90;;;;;;;4.06;76.52;95242.25;4954337;29;20457;-81
2021/01/02 02:22:23;;;;;;;7.20;5.50;;;;;;;4.00;77.41;95237.34;4922089;29;20604;-81
2021/01/02 02:24:52;;;;;;;11.23;5.77;;;;;;;4.00;78.33;95235.59;4954422;29;20505;-81
2021/01/02 02:27:25;;;;;;;7.60;5.60;;;;;;;4.01;78.38;95236.44;4954363;29;20485;-81
2021/01/02 02:30:10;;;;;;;5.67;5.07;;;;;;;4.07;78.51;95228.34;4954222;29;20574;-81
2021/01/02 02:32:39;;;;;;;14.40;6.07;;;;;;;4.04;77.65;95234.50;4954095;29;20947;-81
2021/01/02 02:35:09;;;;;;;5.80;5.20;;;;;;;3.99;78.67;95239.13;4954128;29;20870;-82
2021/01/02 02:37:40;;;;;;;7.83;6.03;;;;;;;3.94;78.31;95228.16;4954167;29;20448;-82
2021/01/02 02:40:09;;;;;;;8.57;6.87;;;;;;;3.93;77.83;95239.44;4954395;29;20463;-82
2021/01/02 02:42:38;;;;;;;8.37;5.90;;;;;;;3.85;78.58;95233.00;4955173;28;20493;-81
2021/01/02 02:45:12;;;;;;;7.13;5.80;;;;;;;3.81;78.85;95231.50;5014708;28;20824;-82
2021/01/02 02:47:42;;;;;;;6.80;5.30;;;;;;;3.82;78.90;95238.34;4980920;28;20485;-81
2021/01/02 02:50:17;;;;;;;9.33;5.83;;;;;;;3.85;78.91;95238.19;5014261;28;21006;-81
2021/01/02 02:52:46;;;;;;;7.90;7.10;;;;;;;3.78;78.65;95231.66;5015074;28;20558;-81
2021/01/02 02:55:13;;;;;;;10.53;6.07;;;;;;;3.80;78.84;95235.84;5014417;28;20447;-81
2021/01/02 02:57:47;;;;;;;9.20;6.57;;;;;;;3.85;77.74;95233.84;5022273;28;20447;-81
2021/01/02 03:00:15;;;;;;;14.77;9.90;;;;;;;3.83;77.87;95237.44;5032508;28;20447;-81
2021/01/02 03:02:46;;;;;;;16.57;9.40;;;;;;;3.85;77.72;95227.81;5017335;28;20505;-81
2021/01/02 03:05:14;;;;;;;10.80;8.63;;;;;;;3.91;77.97;95233.50;5014263;28;20819;-82
2021/01/02 03:07:42;;;;;;;10.50;9.10;;;;;;;3.94;77.46;95229.91;5013780;28;20482;-81
2021/01/02 03:10:10;;;;;;;18.47;10.27;;;;;;;3.94;77.05;95227.31;5013856;28;20436;-82
2021/01/02 03:12:41;;;;;;;17.97;10.70;;;;;;;3.73;77.34;95237.91;5013913;28;20790;-82
2021/01/02 03:15:09;;;;;;;16.20;11.50;;;;;;;3.69;77.22;95240.75;5013817;28;20459;-82
2021/01/02 03:17:35;;;;;;;18.90;10.80;;;;;;;3.66;77.95;95241.75;5014300;28;20466;-82
2021/01/02 03:20:03;;;;;;;17.67;9.60;;;;;;;3.69;78.46;95244.16;5013803;28;20449;-82
2021/01/02 03:22:30;;;;;;;17.37;10.90;;;;;;;3.72;77.75;95237.97;4995270;28;20454;-82
2021/01/02 03:24:56;;;;;;;21.00;10.40;;;;;;;3.77;77.99;95245.56;5013872;28;20439;-82
2021/01/02 03:27:22;;;;;;;19.37;11.20;;;;;;;3.82;77.19;95253.94;5013586;28;20483;-82
2021/01/02 03:29:49;;;;;;;20.00;11.77;;;;;;;3.85;77.03;95254.59;4995046;28;20435;-82
2021/01/02 03:32:15;;;;;;;14.37;9.97;;;;;;;3.88;76.74;95258.78;5013593;28;20473;-82
2021/01/02 03:34:42;;;;;;;18.97;11.07;;;;;;;3.90;77.00;95265.56;5013501;28;20663;-82
2021/01/02 03:37:09;;;;;;;12.73;9.10;;;;;;;3.88;77.14;95261.38;5013646;28;20451;-82
2021/01/02 03:39:35;;;;;;;16.37;9.17;;;;;;;3.94;76.14;95268.84;5013725;28;20793;-82
2021/01/02 03:42:02;;;;;;;12.20;9.13;;;;;;;3.91;75.63;95264.66;5013433;28;20435;-82
2021/01/02 03:44:29;;;;;;;13.47;10.17;;;;;;;3.88;76.19;95263.97;5013379;28;20829;-82
2021/01/02 03:46:55;;;;;;;21.20;12.40;;;;;;;3.80;74.79;95271.34;5013145;28;20540;-82
2021/01/02 03:49:21;;;;;;;34.90;19.37;;;;;;;3.61;74.88;95261.91;5013147;28;20854;-81
2021/01/02 03:51:48;;;;;;;21.70;12.80;;;;;;;3.37;75.95;95266.59;4978469;28;20470;-82
2021/01/02 03:54:17;;;;;;;23.52;10.82;;;;;;;2.92;79.80;95266.31;5013513;28;20454;-82
2021/01/02 03:56:43;;;;;;;21.73;11.40;;;;;;;3.05;79.61;95267.38;5013082;28;20207;-82
2021/01/02 03:59:10;;;;;;;29.70;13.40;;;;;;;3.04;79.43;95266.53;5013428;28;20506;-81
2021/01/02 04:01:36;;;;;;;16.87;9.80;;;;;;;3.10;79.61;95274.00;5013023;28;20821;-81
2021/01/02 04:04:02;;;;;;;14.73;9.25;;;;;;;3.10;80.02;95271.41;5013338;28;20502;-81
2021/01/02 04:06:29;;;;;;;12.33;8.23;;;;;;;3.08;80.19;95265.44;5013028;28;20262;-81
2021/01/02 04:08:55;;;;;;;12.27;7.80;;;;;;;3.08;79.91;95270.63;5013092;28;20504;-82
2021/01/02 04:11:22;;;;;;;11.77;7.20;;;;;;;3.17;80.26;95266.75;5013218;28;21000;-82
2021/01/02 04:13:49;;;;;;;19.03;8.73;;;;;;;3.26;79.56;95275.84;5013555;28;20501;-82
2021/01/02 04:16:16;;;;;;;14.90;9.43;;;;;;;3.26;78.73;95271.50;4979056;28;20447;-82
2021/01/02 04:18:43;;;;;;;18.03;10.77;;;;;;;3.29;78.68;95273.94;5012960;28;20451;-81
2021/01/02 04:21:12;;;;;;;18.53;11.43;;;;;;;3.19;78.93;95279.66;5013371;28;20530;-82
2021/01/02 04:23:38;;;;;;;15.50;10.17;;;;;;;3.22;79.08;95274.31;5012966;28;20447;-82
2021/01/02 04:26:05;;;;;;;18.52;12.00;;;;;;;3.22;79.44;95277.75;5013239;28;20438;-82
2021/01/02 04:28:32;;;;;;;18.13;12.43;;;;;;;3.28;79.59;95276.59;5012931;28;20239;-82
2021/01/02 04:30:58;;;;;;;25.00;14.57;;;;;;;3.29;78.78;95280.88;5013516;28;20454;-82
2021/01/02 04:33:25;;;;;;;22.80;13.98;;;;;;;3.29;78.99;95286.91;5013349;28;20443;-81
2021/01/02 04:35:51;;;;;;;20.80;13.70;;;;;;;3.29;78.60;95286.06;5014784;28;20247;-81
2021/01/02 04:38:17;;;;;;;25.57;14.87;;;;;;;3.26;78.82;95283.63;5019713;28;20447;-82
2021/01/02 04:40:44;;;;;;;26.35;16.20;;;;;;;3.22;77.71;95295.91;5023372;28;20439;-81
2021/01/02 04:43:11;;;;;;;30.17;15.68;;;;;;;3.21;78.21;95299.41;5020467;28;20199;-81
2021/01/02 04:45:38;;;;;;;21.97;13.90;;;;;;;3.25;78.56;95292.31;5020209;28;20262;-81
2021/01/02 04:48:06;;;;;;;19.07;14.13;;;;;;;3.28;78.19;95300.78;5019785;28;20493;-81
2021/01/02 04:50:33;;;;;;;27.87;16.03;;;;;;;3.33;78.05;95303.97;5020268;28;20446;-82
2021/01/02 04:53:04;;;;;;;27.53;14.30;;;;;;;3.35;78.38;95301.31;5020312;28;20438;-81
2021/01/02 04:55:32;;;;;;;28.10;14.33;;;;;;;3.38;78.16;95308.94;5020192;28;20457;-82
2021/01/02 04:57:59;;;;;;;21.53;14.80;;;;;;;3.40;77.84;95310.53;5019933;28;20447;-82
2021/01/02 05:00:27;;;;;;;30.53;15.27;;;;;;;3.39;77.66;95316.63;5019531;28;20994;-81
2021/01/02 05:02:54;;;;;;;22.13;13.73;;;;;;;3.37;78.20;95315.03;5020019;28;20947;-81
2021/01/02 05:05:20;;;;;;;26.10;13.37;;;;;;;3.37;77.68;95320.22;5019774;28;20500;-81
2021/01/02 05:07:47;;;;;;;22.07;13.30;;;;;;;3.39;78.08;95319.22;5019515;28;20479;-81
2021/01/02 05:10:13;;;;;;;18.67;12.23;;;;;;;3.42;76.97;95326.00;5019650;28;20454;-83
2021/01/02 05:12:39;;;;;;;28.53;13.83;;;;;;;3.41;77.27;95327.75;5019068;28;20451;-81
2021/01/02 05:15:08;;;;;;;47.47;22.60;;;;;;;3.42;77.08;95333.78;5019484;28;20935;-81
2021/01/02 05:17:36;;;;;;;39.33;20.13;;;;;;;3.41;77.57;95324.34;5019596;28;20479;-82
2021/01/02 05:20:06;;;;;;;21.70;13.27;;;;;;;3.43;76.89;95330.28;5018939;28;20656;-82
2021/01/02 05:22:33;;;;;;;19.77;11.73;;;;;;;3.44;77.22;95326.78;5018819;28;20930;-81
2021/01/02 05:25:09;;;;;;;16.47;10.80;;;;;;;3.42;76.78;95334.63;5018690;28;20451;-81
2021/01/02 05:27:36;;;;;;;18.43;11.37;;;;;;;3.41;76.44;95332.13;5019155;28;20974;-81
2021/01/02 05:30:20;;;;;;;27.00;13.47;;;;;;;3.35;75.85;95335.03;5018915;28;20474;-81
2021/01/02 05:33:01;;;;;;;34.63;17.63;;;;;;;3.28;76.35;95331.06;5018622;28;20458;-82
2021/01/02 05:35:44;;;;;;;45.17;19.80;;;;;;;3.00;76.27;95341.94;5000371;28;20439;-81
2021/01/02 05:38:12;;;;;;;35.63;18.40;;;;;;;2.95;77.26;95342.16;5018520;28;20973;-82
2021/01/02 05:40:39;;;;;;;38.87;20.70;;;;;;;2.86;77.49;95345.16;5019126;28;20447;-82
2021/01/02 05:43:06;;;;;;;40.17;19.20;;;;;;;2.84;77.57;95343.56;5018912;28;20450;-82
2021/01/02 05:45:32;;;;;;;39.17;19.43;;;;;;;2.88;77.41;95353.69;5018447;28;20494;-82
2021/01/02 05:48:12;;;;;;;36.10;18.33;;;;;;;2.89;77.85;95355.41;5015835;28;20486;-82
2021/01/02 05:50:48;;;;;;;56.93;30.80;;;;;;;2.78;77.79;95355.06;5015641;28;20822;-81
2021/01/02 05:53:22;;;;;;;68.28;37.88;;;;;;;2.64;78.69;95355.72;5015574;28;20485;-83
2021/01/02 05:55:57;;;;;;;144.50;80.30;;;;;;;2.53;79.58;95360.53;5017148;28;20200;-85
2021/01/02 05:58:23;;;;;;;107.07;57.92;;;;;;;2.50;80.72;95358.09;5017039;28;20216;-85
2021/01/02 06:00:49;;;;;;;76.18;40.35;;;;;;;2.56;81.47;95362.13;5015497;28;20553;-83
2021/01/02 06:03:24;;;;;;;76.63;43.80;;;;;;;2.49;80.67;95367.59;5015940;28;20212;-81
2021/01/02 06:06:03;;;;;;;84.15;47.83;;;;;;;2.37;81.04;95375.94;5020070;28;20592;-81
2021/01/02 06:08:31;;;;;;;76.22;42.08;;;;;;;2.37;81.09;95373.34;5030721;28;20227;-80
2021/01/02 06:11:00;;;;;;;70.15;37.55;;;;;;;2.41;80.54;95382.66;5016773;28;20226;-81
2021/01/02 06:13:28;;;;;;;49.17;31.42;;;;;;;2.43;80.29;95380.00;5015506;28;20204;-81
2021/01/02 06:15:58;;;;;;;47.92;28.05;;;;;;;2.46;80.29;95378.09;5014812;28;20447;-81
2021/01/02 06:18:24;;;;;;;40.65;26.90;;;;;;;2.55;80.22;95382.03;5015303;28;20204;-81
2021/01/02 06:20:51;;;;;;;39.65;25.13;;;;;;;2.56;79.33;95383.69;5015397;28;20291;-81
2021/01/02 06:23:19;;;;;;;50.78;26.00;;;;;;;2.60;79.35;95380.09;5014814;28;20207;-81
2021/01/02 06:25:48;;;;;;;40.83;26.10;;;;;;;2.62;79.41;95378.25;5015236;28;20591;-83
2021/01/02 06:28:16;;;;;;;42.47;29.47;;;;;;;2.47;79.75;95379.78;5014780;28;21070;-81
2021/01/02 06:30:42;;;;;;;62.47;32.67;;;;;;;2.56;80.38;95385.44;5015008;28;20467;-81
2021/01/02 06:33:14;;;;;;;49.50;29.35;;;;;;;2.62;80.45;95382.59;5015012;28;20463;-81
2021/01/02 06:35:41;;;;;;;55.60;27.63;;;;;;;2.70;80.81;95386.50;5014936;28;20199;-81
2021/01/02 06:38:10;;;;;;;48.63;26.05;;;;;;;5.34;100.00;95385.06;5014903;28;20876;-79
2021/01/02 06:40:39;;;;;;;40.28;27.83;;;;;;;7.37;95.02;95395.34;5014275;28;20403;-81
2021/01/02 06:43:08;;;;;;;54.87;34.47;;;;;;;9.59;73.02;95391.47;5015264;28;20451;-82
2021/01/02 06:45:57;;;;;;;46.30;28.00;;;;;;;7.98;61.03;95396.56;5014558;28;20479;-78
2021/01/02 06:48:40;;;;;;;57.00;31.87;;;;;;;6.72;63.71;95395.13;5013950;28;20889;-80
2021/01/02 06:51:29;;;;;;;39.47;21.40;;;;;;;6.18;66.23;95392.31;5014248;28;20455;-78
2021/01/02 06:53:56;;;;;;;39.30;23.50;;;;;;;5.92;67.00;95393.00;5014612;28;20451;-80
2021/01/02 06:56:36;;;;;;;41.83;21.27;;;;;;;5.67;68.32;95392.72;5014612;28;20447;-81
2021/01/02 06:59:04;;;;;;;39.33;23.00;;;;;;;5.46;68.55;95399.97;5010905;28;20513;-81
2021/01/02 07:01:42;;;;;;;43.30;26.33;;;;;;;5.20;70.22;95397.09;4995309;28;20448;-83
2021/01/02 07:04:09;;;;;;;31.67;22.50;;;;;;;4.99;72.40;95400.88;4995294;28;20444;-82
2021/01/02 07:06:40;;;;;;;42.90;25.10;;;;;;;4.82;73.72;95403.53;4995111;28;20440;-83
2021/01/02 07:09:41;;;;;;;49.67;30.50;;;;;;;4.65;74.18;95407.91;4994935;28;20854;-80
2021/01/02 07:12:14;;;;;;;58.03;34.30;;;;;;;4.49;75.05;95408.78;4995220;28;20447;-82
2021/01/02 07:14:41;;;;;;;58.10;34.73;;;;;;;4.34;76.47;95403.50;4994684;28;20786;-82
2021/01/02 07:17:12;;;;;;;70.17;39.40;;;;;;;4.20;76.98;95410.31;4995449;28;20526;-89
2021/01/02 07:19:47;;;;;;;71.67;41.63;;;;;;;4.14;77.80;95408.88;4995153;28;20494;-84
2021/01/02 07:22:24;;;;;;;135.37;62.70;;;;;;;3.69;79.15;95410.25;4994530;28;20448;-82
2021/01/02 07:24:51;;;;;;;96.27;44.17;;;;;;;3.69;79.72;95415.44;4995200;28;20502;-82
2021/01/02 07:27:20;;;;;;;42.97;24.90;;;;;;;3.56;81.19;95406.59;4994657;28;21309;-83
2021/01/02 07:29:48;;;;;;;31.57;17.27;;;;;;;3.61;80.52;95415.00;4994876;28;20444;-84
2021/01/02 07:32:16;;;;;;;25.47;15.23;;;;;;;3.46;81.73;95418.31;4995084;28;20455;-83
2021/01/02 07:34:46;;;;;;;28.13;12.30;;;;;;;3.38;82.14;95421.28;4995303;28;20868;-87
2021/01/02 07:37:14;;;;;;;21.43;14.20;;;;;;;3.55;82.05;95412.72;4994338;28;20459;-84
2021/01/02 07:39:41;;;;;;;16.10;12.00;;;;;;;3.68;82.05;95413.78;4994707;28;20444;-85
2021/01/02 07:42:10;;;;;;;12.60;8.50;;;;;;;3.64;81.13;95422.63;4994107;28;20455;-83
2021/01/02 07:44:39;;;;;;;18.30;10.90;;;;;;;3.81;80.46;95426.16;4993765;28;21006;-83
2021/01/02 07:47:06;;;;;;;15.60;10.83;;;;;;;3.96;80.54;95413.22;4991922;28;20455;-87
2021/01/02 07:49:33;;;;;;;20.80;11.23;;;;;;;4.13;80.13;95420.19;4994332;28;20835;-82
2021/01/02 07:51:59;;;;;;;17.97;11.57;;;;;;;4.27;79.56;95412.50;4993861;28;20456;-83
2021/01/02 07:54:34;;;;;;;23.80;14.80;;;;;;;4.32;78.86;95420.88;4993377;28;20444;-82
2021/01/02 07:57:00;;;;;;;46.63;17.30;;;;;;;4.15;79.02;95422.69;4994134;28;20474;-83
2021/01/02 07:59:29;;;;;;;25.23;14.03;;;;;;;4.15;79.07;95418.34;4993705;28;20447;-82
2021/01/02 08:01:58;;;;;;;14.00;11.13;;;;;;;4.16;79.43;95413.97;4991785;28;20444;-83
2021/01/02 08:04:25;;;;;;;18.97;11.30;;;;;;;3.99;80.16;95415.66;4993599;28;20452;-83
2021/01/02 08:06:54;;;;;;;23.27;12.90;;;;;;;4.21;80.04;95410.22;4993906;28;20502;-81
2021/01/02 08:09:20;;;;;;;20.57;13.00;;;;;;;4.40;79.17;95417.06;4993452;28;20452;-83
2021/01/02 08:11:55;;;;;;;25.73;13.77;;;;;;;4.47;79.68;95414.06;4992526;28;20462;-83
2021/01/02 08:14:22;;;;;;;29.07;15.60;;;;;;;4.57;79.68;95419.59;4991350;28;20458;-82
2021/01/02 08:17:03;;;;;;;22.60;13.47;;;;;;;4.66;79.73;95416.53;4993646;28;20447;-81
2021/01/02 08:19:31;;;;;;;26.60;13.73;;;;;;;4.76;78.20;95414.28;4993922;28;20443;-81
2021/01/02 08:21:59;;;;;;;22.93;12.03;;;;;;;4.87;77.49;95407.56;4993436;28;20808;-81
2021/01/02 08:24:26;;;;;;;15.73;12.23;;;;;;;4.98;77.09;95413.03;4993653;28;20444;-84
2021/01/02 08:26:53;;;;;;;18.80;12.07;;;;;;;4.98;76.64;95415.66;4993613;28;20802;-84
2021/01/02 08:29:19;;;;;;;17.07;11.17;;;;;;;5.06;77.15;95412.63;4993481;28;20877;-82
2021/01/02 08:31:52;;;;;;;20.67;12.93;;;;;;;4.89;76.71;95407.47;4993541;28;20452;-82
2021/01/02 08:34:26;;;;;;;23.07;13.40;;;;;;;5.07;76.96;95406.50;4993527;28;20452;-84
2021/01/02 08:37:00;;;;;;;26.70;15.43;;;;;;;5.06;77.38;95401.38;4993655;28;20839;-82
2021/01/02 08:39:27;;;;;;;35.03;17.50;;;;;;;5.15;77.01;95390.47;4992707;28;20462;-83
2021/01/02 08:41:55;;;;;;;30.07;17.40;;;;;;;5.20;76.66;95391.91;4992997;28;20451;-83
2021/01/02 08:44:30;;;;;;;26.87;16.43;;;;;;;5.32;76.70;95402.53;4993035;28;20575;-83
2021/01/02 08:46:57;;;;;;;26.83;13.00;;;;;;;5.36;76.68;95399.66;4992947;28;20471;-84
2021/01/02 08:49:36;;;;;;;22.97;13.93;;;;;;;4.97;76.66;95387.13;4993555;28;20456;-83
2021/01/02 08:52:19;;;;;;;25.03;16.33;;;;;;;4.96;77.19;95382.84;4959722;28;20855;-81
2021/01/02 08:54:47;;;;;;;24.23;13.97;;;;;;;5.05;77.56;95381.50;4993485;28;20911;-82
2021/01/02 08:57:30;;;;;;;21.10;14.43;;;;;;;4.97;78.70;95382.75;4974519;28;20443;-82
2021/01/02 09:00:14;;;;;;;29.57;15.17;;;;;;;5.06;78.08;95391.81;4992988;28;20458;-82
2021/01/02 09:02:42;;;;;;;33.70;21.40;;;;;;;5.01;78.27;95393.84;4974139;28;20455;-81
2021/01/02 09:05:11;;;;;;;33.70;23.07;;;;;;;5.15;77.85;95390.47;4973370;28;20444;-80
2021/01/02 09:07:39;;;;;;;29.00;18.50;;;;;;;5.04;77.84;95383.25;4980765;28;20491;-82
2021/01/02 09:10:22;;;;;;;32.03;18.13;;;;;;;5.18;77.01;95400.69;4990520;28;21019;-82
2021/01/02 09:13:09;;;;;;;25.07;18.53;;;;;;;5.26;76.72;95388.94;4974389;28;20449;-82
2021/01/02 09:15:43;;;;;;;30.90;19.60;;;;;;;5.38;76.16;95382.22;4974406;28;20952;-83
2021/01/02 09:18:09;;;;;;;27.07;18.13;;;;;;;5.41;77.75;95381.19;4974642;28;20544;-83
2021/01/02 09:20:37;;;;;;;28.10;16.73;;;;;;;5.46;77.65;95379.16;4973763;28;20449;-85
2021/01/02 09:23:03;;;;;;;35.33;17.87;;;;;;;5.58;77.15;95381.91;4976767;28;20452;-81
2021/01/02 09:25:30;;;;;;;24.70;18.33;;;;;;;5.59;77.42;95375.78;4982823;28;21048;-83
2021/01/02 09:28:10;;;;;;;27.87;18.30;;;;;;;5.68;77.17;95370.97;4996685;28;20487;-82
2021/01/02 09:30:36;;;;;;;30.47;18.27;;;;;;;5.73;77.70;95368.94;4995759;28;20459;-82
2021/01/02 09:33:03;;;;;;;27.27;18.00;;;;;;;5.86;76.92;95377.72;4978629;28;20866;-82
2021/01/02 09:35:30;;;;;;;27.03;18.57;;;;;;;6.03;76.13;95374.13;4961759;28;20470;-82
2021/01/02 09:37:57;;;;;;;33.60;21.17;;;;;;;6.08;75.14;95362.53;4961941;28;20460;-81
2021/01/02 09:40:25;;;;;;;40.17;24.70;;;;;;;6.20;74.79;95367.00;4997183;28;20447;-80
2021/01/02 09:42:51;;;;;;;39.47;29.07;;;;;;;6.32;74.38;95364.56;4996491;28;20456;-81
2021/01/02 09:45:18;;;;;;;51.47;31.47;;;;;;;6.29;73.93;95362.16;4996725;28;20471;-83
2021/01/02 09:47:44;;;;;;;53.47;32.23;;;;;;;6.29;73.48;95360.38;4996387;28;20490;-82
2021/01/02 09:50:11;;;;;;;50.83;34.00;;;;;;;6.30;73.64;95361.22;4996195;28;20440;-82
2021/01/02 09:52:38;;;;;;;48.70;34.37;;;;;;;6.52;74.33;95356.38;4997228;28;20451;-90
2021/01/02 09:55:06;;;;;;;54.83;34.30;;;;;;;6.69;72.90;95353.59;4984545;28;20462;-81
2021/01/02 09:57:33;;;;;;;57.63;37.17;;;;;;;6.84;72.48;95346.56;4995759;28;20511;-81
2021/01/02 10:00:00;;;;;;;55.67;36.40;;;;;;;7.02;71.41;95349.78;4996010;28;20458;-84
2021/01/02 10:02:29;;;;;;;52.60;34.17;;;;;;;7.16;70.39;95339.31;4977830;28;20455;-79
2021/01/02 10:04:56;;;;;;;55.27;33.83;;;;;;;7.30;70.50;95341.03;4977629;28;21007;-80
2021/01/02 10:07:22;;;;;;;53.33;36.30;;;;;;;7.35;69.76;95326.75;4995723;28;20485;-80
2021/01/02 10:09:49;;;;;;;58.20;34.20;;;;;;;7.39;69.67;95328.22;4996104;28;20527;-80
2021/01/02 10:12:17;;;;;;;61.47;36.00;;;;;;;7.37;69.05;95319.66;4995942;28;20486;-79
2021/01/02 10:14:45;;;;;;;52.63;34.50;;;;;;;7.54;68.65;95321.16;4996237;28;20518;-80
2021/01/02 10:17:12;;;;;;;44.13;29.73;;;;;;;7.64;68.47;95314.38;4996140;28;20471;-81
2021/01/02 10:19:42;;;;;;;42.20;27.93;;;;;;;7.78;67.45;95314.28;4995995;28;21004;-80
2021/01/02 10:22:08;;;;;;;44.77;28.57;;;;;;;7.86;66.75;95319.03;4995692;28;20440;-80
2021/01/02 10:24:35;;;;;;;51.70;30.77;;;;;;;7.87;66.71;95317.25;4995926;28;20949;-80
2021/01/02 10:27:02;;;;;;;38.77;23.80;;;;;;;7.96;66.38;95312.22;4995865;28;20555;-80
2021/01/02 10:29:28;;;;;;;41.53;24.60;;;;;;;7.95;65.63;95302.72;4996027;28;20535;-81
2021/01/02 10:32:00;;;;;;;41.33;24.37;;;;;;;7.90;65.80;95310.03;4995864;28;20440;-81
2021/01/02 10:34:26;;;;;;;60.13;27.67;;;;;;;7.98;65.54;95299.88;4995456;28;20796;-81
2021/01/02 10:36:52;;;;;;;46.00;21.67;;;;;;;7.97;65.96;95303.44;4995939;28;20956;-80
2021/01/02 10:39:19;;;;;;;38.13;20.73;;;;;;;8.06;65.31;95294.13;4995760;28;20452;-80
2021/01/02 10:41:46;;;;;;;33.30;19.40;;;;;;;8.07;65.34;95296.63;4996128;28;20518;-80
2021/01/02 10:44:13;;;;;;;29.00;17.37;;;;;;;8.04;64.88;95289.00;4995179;28;20572;-82
2021/01/02 10:46:44;;;;;;;31.90;19.43;;;;;;;8.12;65.30;95285.91;4996314;28;20452;-80
2021/01/02 10:49:12;;;;;;;31.93;18.63;;;;;;;8.13;65.59;95276.28;4995767;28;20988;-80
2021/01/02 10:51:39;;;;;;;23.43;15.50;;;;;;;8.07;64.92;95267.06;4995929;28;20452;-80
2021/01/02 10:54:06;;;;;;;25.30;16.03;;;;;;;8.12;65.23;95277.22;4995734;28;20484;-80
2021/01/02 10:56:32;;;;;;;29.93;16.33;;;;;;;8.13;65.84;95276.28;4996421;28;20447;-76
2021/01/02 10:58:59;;;;;;;28.43;16.20;;;;;;;8.19;65.53;95268.00;4995666;28;20448;-83
2021/01/02 11:01:26;;;;;;;31.37;14.63;;;;;;;8.15;64.89;95259.53;4996144;28;20939;-85
2021/01/02 11:03:53;;;;;;;28.93;17.03;;;;;;;8.19;65.80;95262.78;4995408;28;20452;-83
2021/01/02 11:06:20;;;;;;;25.23;17.60;;;;;;;8.13;66.19;95255.34;4995023;28;20460;-84
2021/01/02 11:08:47;;;;;;;26.20;16.13;;;;;;;8.22;66.54;95263.38;4960878;28;20480;-82
2021/01/02 11:11:20;;;;;;;27.10;16.77;;;;;;;8.22;66.73;95247.69;4995418;28;20448;-84
2021/01/02 11:13:46;;;;;;;22.17;14.37;;;;;;;8.35;66.87;95248.53;4994863;28;20820;-83
2021/01/02 11:16:13;;;;;;;17.77;12.60;;;;;;;8.42;65.53;95235.88;4994368;28;20479;-84
2021/01/02 11:18:39;;;;;;;23.07;13.00;;;;;;;8.50;65.85;95235.34;4960361;28;20422;-82
2021/01/02 11:21:08;;;;;;;19.17;13.53;;;;;;;8.67;65.61;95240.19;4994444;28;20456;-82
2021/01/02 11:23:36;;;;;;;16.37;11.07;;;;;;;8.68;64.64;95237.50;4960112;28;21007;-81
2021/01/02 11:26:07;;;;;;;16.30;10.70;;;;;;;8.68;64.09;95232.25;4994723;28;20456;-83
2021/01/02 11:28:34;;;;;;;19.00;11.67;;;;;;;8.59;64.15;95225.03;4994872;28;20486;-81
2021/01/02 11:31:00;;;;;;;19.53;12.73;;;;;;;8.54;65.00;95228.94;4994882;28;20536;-81
2021/01/02 11:33:26;;;;;;;13.77;11.70;;;;;;;8.58;65.44;95231.22;4994750;28;20451;-80
2021/01/02 11:35:53;;;;;;;18.63;11.20;;;;;;;8.71;64.14;95239.03;4994125;28;20811;-81
2021/01/02 11:38:19;;;;;;;15.87;10.50;;;;;;;8.75;63.24;95242.28;4994319;28;20456;-81
2021/01/02 11:40:50;;;;;;;13.67;9.90;;;;;;;8.77;63.71;95240.38;4993877;28;20452;-81
2021/01/02 11:43:16;;;;;;;15.80;10.53;;;;;;;8.90;63.94;95226.28;4993923;28;20457;-81
2021/01/02 11:45:43;;;;;;;20.60;11.90;;;;;;;8.88;63.93;95230.78;4993306;28;20580;-82